createdAt,value
2018-01-22T00:00:06.341Z,7.30
2018-01-22T00:02:33.888Z,6.43
2018-01-22T00:05:01.452Z,7.10
2018-01-22T00:07:29.037Z,6.27
2018-01-22T00:09:56.580Z,5.93
2018-01-22T00:12:24.141Z,6.60
2018-01-22T00:14:51.742Z,6.10
2018-01-22T00:17:19.381Z,6.57
2018-01-22T00:19:47.045Z,6.70
2018-01-22T00:22:14.620Z,6.37
2018-01-22T00:24:42.411Z,6.60
2018-01-22T00:27:10.235Z,5.67
2018-01-22T00:29:37.850Z,4.93
2018-01-22T00:32:05.417Z,5.60
2018-01-22T00:34:32.973Z,5.20
2018-01-22T00:37:00.676Z,6.03
2018-01-22T00:39:28.238Z,4.60
2018-01-22T00:41:55.770Z,4.70
2018-01-22T00:44:23.369Z,4.43
2018-01-22T00:46:50.915Z,5.10
2018-01-22T00:49:18.599Z,4.20
2018-01-22T00:51:46.193Z,5.00
2018-01-22T00:54:13.746Z,5.00
2018-01-22T00:56:41.362Z,3.80
2018-01-22T00:59:08.947Z,2.90
2018-01-22T01:01:36.503Z,2.80
2018-01-22T01:04:04.058Z,3.13
2018-01-22T01:06:31.808Z,3.60
2018-01-22T01:08:59.356Z,3.73
2018-01-22T01:11:27.125Z,3.20
2018-01-22T01:13:54.793Z,4.10
2018-01-22T01:16:22.473Z,5.30
2018-01-22T01:18:50.132Z,3.80
2018-01-22T01:21:17.796Z,4.13
2018-01-22T01:23:45.441Z,3.10
2018-01-22T01:26:13.004Z,3.83
2018-01-22T01:28:40.608Z,3.70
2018-01-22T01:31:08.224Z,3.20
2018-01-22T01:33:35.790Z,3.10
2018-01-22T01:36:03.567Z,3.37
2018-01-22T01:38:31.214Z,3.70
2018-01-22T01:40:58.875Z,3.30
2018-01-22T01:43:26.536Z,2.83
2018-01-22T01:45:54.201Z,2.80
2018-01-22T01:48:21.856Z,2.97
2018-01-22T01:50:49.451Z,4.10
2018-01-22T01:53:17.185Z,3.03
2018-01-22T01:55:44.849Z,2.83
2018-01-22T01:58:12.502Z,3.47
2018-01-22T02:00:40.068Z,3.83
2018-01-22T02:03:07.632Z,2.20
2018-01-22T02:05:35.242Z,3.40
2018-01-22T02:08:02.809Z,2.63
2018-01-22T02:10:30.379Z,4.87
2018-01-22T02:12:58.089Z,3.00
2018-01-22T02:15:25.754Z,2.97
2018-01-22T02:17:53.325Z,3.20
2018-01-22T02:20:20.938Z,4.20
2018-01-22T02:22:48.502Z,2.70
2018-01-22T02:25:16.069Z,3.13
2018-01-22T02:27:44.034Z,3.17
2018-01-22T02:30:11.626Z,2.70
2018-01-22T02:32:39.392Z,4.03
2018-01-22T02:35:07.049Z,3.53
2018-01-22T02:37:34.705Z,3.73
2018-01-22T02:40:02.280Z,3.33
2018-01-22T02:42:29.896Z,2.90
2018-01-22T02:44:57.468Z,2.77
2018-01-22T02:47:25.052Z,3.30
2018-01-22T02:49:52.665Z,2.60
2018-01-22T02:52:20.243Z,2.67
2018-01-22T02:54:47.816Z,3.03
2018-01-22T02:57:15.425Z,3.10
2018-01-22T02:59:43.001Z,2.63
2018-01-22T03:02:10.720Z,2.20
2018-01-22T03:04:38.381Z,2.20
2018-01-22T03:07:05.956Z,2.47
2018-01-22T03:09:33.526Z,2.20
2018-01-22T03:12:01.130Z,2.20
2018-01-22T03:14:28.831Z,2.47
2018-01-22T03:16:56.453Z,2.50
2018-01-22T03:19:24.048Z,3.17
2018-01-22T03:21:51.652Z,2.77
2018-01-22T03:24:19.225Z,3.07
2018-01-22T03:26:46.849Z,2.40
2018-01-22T03:29:14.510Z,2.23
2018-01-22T03:31:42.117Z,2.50
2018-01-22T03:34:09.721Z,3.80
2018-01-22T03:36:37.328Z,5.10
2018-01-22T03:39:05.038Z,3.03
2018-01-22T03:41:32.636Z,2.30
2018-01-22T03:44:00.206Z,2.37
2018-01-22T03:46:27.807Z,2.20
2018-01-22T03:48:55.429Z,3.27
2018-01-22T03:51:23.009Z,3.50
2018-01-22T03:53:50.800Z,3.00
2018-01-22T03:56:18.407Z,2.73
2018-01-22T03:58:45.982Z,2.20
2018-01-22T04:01:13.589Z,2.67
2018-01-22T04:03:41.196Z,3.87
2018-01-22T04:06:08.786Z,3.87
2018-01-22T04:08:36.352Z,3.27
2018-01-22T04:11:04.026Z,3.77
2018-01-22T04:13:31.587Z,6.07
2018-01-22T04:15:59.336Z,3.40
2018-01-22T04:18:26.938Z,7.80
2018-01-22T04:20:54.489Z,3.50
2018-01-22T04:23:22.138Z,3.43
2018-01-22T04:25:49.744Z,6.00
2018-01-22T04:28:17.473Z,4.17
2018-01-22T04:30:45.025Z,2.90
2018-01-22T04:33:12.628Z,4.00
2018-01-22T04:35:40.238Z,4.23
2018-01-22T04:38:07.845Z,4.87
2018-01-22T04:40:35.466Z,8.70
2018-01-22T04:43:03.033Z,3.50
2018-01-22T04:45:30.609Z,3.73
2018-01-22T04:47:58.350Z,4.93
2018-01-22T04:50:25.911Z,5.37
2018-01-22T04:52:53.481Z,5.70
2018-01-22T04:55:21.085Z,5.30
2018-01-22T04:57:48.789Z,7.60
2018-01-22T05:00:16.379Z,7.30
2018-01-22T05:02:43.948Z,6.93
2018-01-22T05:05:11.555Z,8.33
2018-01-22T05:07:39.124Z,5.30
2018-01-22T05:10:06.738Z,4.80
2018-01-22T05:12:34.313Z,4.67
2018-01-22T05:15:01.891Z,6.80
2018-01-22T05:17:29.501Z,5.37
2018-01-22T05:19:57.054Z,6.20
2018-01-22T05:22:24.595Z,6.90
2018-01-22T05:24:52.213Z,10.47
2018-01-22T05:27:19.814Z,7.90
2018-01-22T05:29:47.386Z,12.77
2018-01-22T05:32:14.988Z,13.70
2018-01-22T05:34:42.558Z,9.53
2018-01-22T05:37:10.132Z,18.33
2018-01-22T05:39:37.734Z,22.37
2018-01-22T05:42:05.307Z,16.70
2018-01-22T05:44:32.885Z,12.23
2018-01-22T05:47:00.489Z,6.17
2018-01-22T05:49:28.067Z,6.43
2018-01-22T05:51:55.674Z,10.60
2018-01-22T05:54:23.287Z,9.30
2018-01-22T05:56:50.919Z,13.90
2018-01-22T05:59:18.555Z,9.97
2018-01-22T06:01:46.157Z,7.40
2018-01-22T06:04:13.726Z,6.67
2018-01-22T06:06:41.293Z,6.40
2018-01-22T06:09:08.909Z,7.67
2018-01-22T06:11:36.481Z,7.27
2018-01-22T06:14:04.119Z,4.20
2018-01-22T06:16:31.730Z,5.47
2018-01-22T06:18:59.305Z,4.90
2018-01-22T06:21:26.926Z,6.73
2018-01-22T06:23:54.538Z,6.47
2018-01-22T06:26:22.103Z,8.30
2018-01-22T06:28:49.721Z,5.40
2018-01-22T06:31:17.345Z,8.10
2018-01-22T06:33:44.912Z,8.63
2018-01-22T06:36:12.494Z,6.60
2018-01-22T06:38:40.109Z,4.97
2018-01-22T06:41:07.687Z,8.47
2018-01-22T06:43:35.265Z,8.67
2018-01-22T06:46:02.898Z,31.70
2018-01-22T06:48:30.473Z,10.70
2018-01-22T06:50:58.043Z,12.40
2018-01-22T06:53:25.676Z,11.07
2018-01-22T06:55:53.374Z,10.17
2018-01-22T06:58:20.938Z,11.73
2018-01-22T07:00:48.622Z,9.10
2018-01-22T07:03:16.195Z,8.10
2018-01-22T07:05:43.953Z,7.00
2018-01-22T07:08:11.566Z,10.40
2018-01-22T07:10:39.127Z,10.00
2018-01-22T07:13:06.726Z,11.20
2018-01-22T07:15:34.298Z,11.40
2018-01-22T07:18:01.866Z,12.30
2018-01-22T07:20:29.440Z,12.83
2018-01-22T07:22:57.070Z,18.43
2018-01-22T07:25:24.915Z,13.33
2018-01-22T07:27:52.493Z,23.83
2018-01-22T07:30:20.163Z,26.90
2018-01-22T07:32:47.832Z,26.07
2018-01-22T07:35:15.391Z,21.03
2018-01-22T07:37:43.007Z,15.93
2018-01-22T07:40:10.590Z,13.93
2018-01-22T07:42:38.269Z,16.53
2018-01-22T07:45:05.865Z,11.63
2018-01-22T07:47:33.440Z,12.10
2018-01-22T07:50:01.024Z,15.70
2018-01-22T07:52:28.657Z,13.67
2018-01-22T07:54:56.241Z,11.80
2018-01-22T07:57:23.813Z,11.33
2018-01-22T07:59:51.506Z,9.50
2018-01-22T08:02:19.073Z,12.23
2018-01-22T08:04:46.654Z,10.93
2018-01-22T08:07:14.281Z,13.70
2018-01-22T08:09:41.852Z,16.40
2018-01-22T08:12:09.441Z,18.27
2018-01-22T08:14:37.085Z,18.53
2018-01-22T08:17:04.716Z,10.97
2018-01-22T08:19:32.310Z,13.07
2018-01-22T08:21:59.956Z,12.00
2018-01-22T08:24:27.523Z,15.30
2018-01-22T08:26:55.105Z,15.80
2018-01-22T08:29:22.734Z,20.37
2018-01-22T08:31:50.321Z,16.80
2018-01-22T08:34:17.888Z,15.70
2018-01-22T08:36:45.504Z,15.57
2018-01-22T08:39:13.085Z,16.77
2018-01-22T08:41:40.655Z,20.47
2018-01-22T08:44:09.182Z,15.57
2018-01-22T08:46:36.764Z,15.17
2018-01-22T08:49:04.389Z,12.70
2018-01-22T08:51:32.114Z,13.30
2018-01-22T08:53:59.865Z,13.00
2018-01-22T08:56:27.439Z,14.97
2018-01-22T08:58:55.060Z,13.67
2018-01-22T09:01:22.645Z,16.83
2018-01-22T09:03:50.291Z,14.40
2018-01-22T09:06:18.036Z,16.77
2018-01-22T09:08:45.622Z,13.47
2018-01-22T09:11:13.178Z,12.73
2018-01-22T09:13:40.808Z,22.70
2018-01-22T09:16:08.380Z,14.37
2018-01-22T09:18:35.976Z,14.57
2018-01-22T09:21:03.615Z,13.43
2018-01-22T09:23:31.393Z,13.77
2018-01-22T09:25:58.983Z,13.50
2018-01-22T09:28:26.593Z,16.20
2018-01-22T09:30:54.377Z,14.20
2018-01-22T09:33:21.967Z,14.53
2018-01-22T09:35:49.714Z,12.17
2018-01-22T09:38:17.286Z,22.20
2018-01-22T09:40:44.890Z,18.30
2018-01-22T09:43:12.612Z,13.07
2018-01-22T09:45:40.197Z,13.53
2018-01-22T09:48:07.769Z,16.00
2018-01-22T09:50:35.425Z,13.87
2018-01-22T09:53:03.014Z,20.07
2018-01-22T09:55:30.616Z,22.47
2018-01-22T09:57:58.251Z,22.37
2018-01-22T10:00:25.845Z,17.27
2018-01-22T10:02:53.427Z,21.70
2018-01-22T10:05:21.052Z,21.47
2018-01-22T10:07:48.614Z,18.70
2018-01-22T10:10:16.194Z,23.17
2018-01-22T10:12:43.801Z,19.53
2018-01-22T10:15:11.388Z,17.60
2018-01-22T10:17:38.961Z,22.33
2018-01-22T10:20:06.584Z,17.60
2018-01-22T10:22:34.170Z,14.37
2018-01-22T10:25:01.738Z,17.27
2018-01-22T10:27:29.371Z,15.87
2018-01-22T10:29:56.946Z,13.00
2018-01-22T10:32:24.539Z,19.93
2018-01-22T10:34:52.209Z,18.50
2018-01-22T10:37:19.770Z,22.23
2018-01-22T10:39:47.331Z,23.30
2018-01-22T10:42:14.941Z,15.13
2018-01-22T10:44:42.565Z,18.83
2018-01-22T10:47:10.150Z,13.60
2018-01-22T10:49:37.770Z,15.30
2018-01-22T10:52:05.346Z,17.07
2018-01-22T10:54:32.933Z,26.50
2018-01-22T10:57:00.551Z,23.50
2018-01-22T10:59:28.144Z,17.90
2018-01-22T11:01:55.724Z,27.50
2018-01-22T11:04:23.343Z,18.33
2018-01-22T11:06:50.921Z,17.00
2018-01-22T11:09:18.514Z,12.90
2018-01-22T11:11:46.132Z,15.90
2018-01-22T11:14:13.725Z,13.70
2018-01-22T11:16:41.319Z,22.53
2018-01-22T11:19:08.979Z,10.67
2018-01-22T11:21:36.537Z,13.80
2018-01-22T11:24:04.121Z,14.77
2018-01-22T11:26:31.728Z,15.10
2018-01-22T11:28:59.275Z,14.40
2018-01-22T11:31:26.855Z,10.67
2018-01-22T11:33:54.465Z,12.77
2018-01-22T11:36:22.066Z,14.47
2018-01-22T11:38:49.654Z,15.60
2018-01-22T11:41:17.260Z,19.07
2018-01-22T11:43:44.827Z,21.67
2018-01-22T11:46:12.421Z,12.93
2018-01-22T11:48:40.041Z,21.70
2018-01-22T11:51:07.617Z,17.13
2018-01-22T11:53:35.197Z,13.80
2018-01-22T11:56:02.799Z,15.73
2018-01-22T11:58:30.371Z,16.07
2018-01-22T12:00:57.932Z,15.67
2018-01-22T12:03:25.743Z,18.13
2018-01-22T12:05:53.324Z,14.43
2018-01-22T12:08:21.069Z,13.17
2018-01-22T12:10:48.703Z,16.63
2018-01-22T12:13:16.316Z,20.60
2018-01-22T12:15:43.954Z,19.10
2018-01-22T12:18:11.565Z,20.57
2018-01-22T12:20:39.152Z,15.10
2018-01-22T12:23:06.783Z,12.40
2018-01-22T12:25:34.388Z,15.50
2018-01-22T12:28:01.958Z,14.17
2018-01-22T12:30:29.550Z,12.57
2018-01-22T12:32:57.206Z,14.73
2018-01-22T12:35:24.773Z,14.63
2018-01-22T12:37:52.360Z,10.90
2018-01-22T12:40:19.969Z,11.87
2018-01-22T12:42:47.614Z,15.67
2018-01-22T12:45:15.194Z,18.93
2018-01-22T12:47:42.828Z,23.93
2018-01-22T12:50:10.460Z,19.87
2018-01-22T12:52:38.064Z,21.63
2018-01-22T12:55:05.729Z,21.40
2018-01-22T12:57:33.495Z,35.13
2018-01-22T13:00:01.077Z,28.83
2018-01-22T13:02:28.712Z,42.27
2018-01-22T13:04:56.314Z,56.90
2018-01-22T13:07:23.889Z,58.03
2018-01-22T13:09:52.558Z,25.10
2018-01-22T13:12:20.148Z,22.23
2018-01-22T13:14:47.726Z,27.23
2018-01-22T13:17:15.411Z,29.63
2018-01-22T13:19:43.035Z,25.13
2018-01-22T13:22:10.607Z,21.50
2018-01-22T13:24:38.226Z,26.57
2018-01-22T13:27:05.911Z,31.20
2018-01-22T13:29:33.488Z,29.10
2018-01-22T13:32:01.101Z,26.90
2018-01-22T13:34:28.673Z,38.50
2018-01-22T13:36:56.252Z,32.63
2018-01-22T13:39:23.853Z,30.23
2018-01-22T13:41:51.428Z,30.23
2018-01-22T13:44:19.167Z,28.03
2018-01-22T13:46:46.762Z,22.73
2018-01-22T13:49:14.335Z,33.50
2018-01-22T13:51:41.925Z,24.23
2018-01-22T13:54:09.594Z,40.93
2018-01-22T13:56:37.222Z,48.50
2018-01-22T13:59:05.402Z,38.13
2018-01-22T14:01:33.025Z,32.90
2018-01-22T14:04:00.581Z,28.37
2018-01-22T14:06:28.183Z,23.90
2018-01-22T14:08:55.769Z,27.17
2018-01-22T14:11:23.422Z,31.43
2018-01-22T14:13:51.710Z,17.40
2018-01-22T14:16:19.856Z,24.27
2018-01-22T14:18:47.437Z,32.07
2018-01-22T14:21:15.179Z,23.43
2018-01-22T14:23:42.811Z,37.20
2018-01-22T14:26:10.453Z,28.30
2018-01-22T14:28:38.071Z,31.73
2018-01-22T14:31:05.740Z,34.03
2018-01-22T14:33:33.331Z,36.47
2018-01-22T14:36:00.885Z,36.20
2018-01-22T14:38:28.702Z,32.90
2018-01-22T14:40:56.296Z,31.27
2018-01-22T14:43:23.852Z,29.27
2018-01-22T14:45:51.465Z,26.20
2018-01-22T14:48:19.030Z,43.60
2018-01-22T14:50:46.741Z,36.20
2018-01-22T14:53:14.348Z,35.63
2018-01-22T14:55:41.933Z,44.90
2018-01-22T14:58:09.524Z,50.37
2018-01-22T15:00:37.139Z,38.17
2018-01-22T15:03:04.703Z,38.63
2018-01-22T15:05:32.265Z,37.60
2018-01-22T15:07:59.855Z,42.20
2018-01-22T15:10:27.437Z,53.83
2018-01-22T15:12:55.009Z,74.20
2018-01-22T15:15:22.599Z,66.33
2018-01-22T15:17:50.164Z,42.47
2018-01-22T15:20:17.711Z,46.30
2018-01-22T15:22:45.339Z,61.50
2018-01-22T15:25:12.912Z,48.57
2018-01-22T15:27:40.482Z,47.33
2018-01-22T15:30:08.121Z,43.77
2018-01-22T15:32:35.682Z,50.43
2018-01-22T15:35:03.253Z,48.77
2018-01-22T15:37:30.850Z,58.10
2018-01-22T15:39:58.414Z,53.40
2018-01-22T15:42:25.984Z,52.70
2018-01-22T15:44:53.613Z,43.63
2018-01-22T15:47:21.202Z,39.67
2018-01-22T15:49:48.792Z,38.13
2018-01-22T15:52:16.461Z,48.37
2018-01-22T15:54:44.028Z,47.93
2018-01-22T15:57:11.585Z,71.70
2018-01-22T15:59:39.205Z,49.80
2018-01-22T16:02:06.829Z,43.63
2018-01-22T16:04:34.401Z,61.17
2018-01-22T16:07:02.020Z,61.33
2018-01-22T16:09:29.600Z,49.40
2018-01-22T16:11:57.164Z,41.70
2018-01-22T16:14:26.726Z,44.07
2018-01-22T16:16:54.995Z,43.80
2018-01-22T16:19:23.666Z,40.10
2018-01-22T16:21:52.954Z,42.10
2018-01-22T16:24:22.832Z,88.40
2018-01-22T16:26:52.341Z,72.43
2018-01-22T16:29:20.132Z,83.77
2018-01-22T16:31:47.743Z,75.12
2018-01-22T16:34:15.310Z,81.37
2018-01-22T16:36:42.925Z,81.83
2018-01-22T16:39:10.495Z,65.80
2018-01-22T16:41:38.099Z,72.30
2018-01-22T16:44:05.738Z,49.33
2018-01-22T16:46:33.330Z,41.87
2018-01-22T16:49:00.902Z,40.30
2018-01-22T16:51:28.504Z,47.90
2018-01-22T16:53:56.122Z,52.20
2018-01-22T16:56:23.817Z,62.70
2018-01-22T16:58:51.447Z,63.93
2018-01-22T17:01:19.096Z,50.80
2018-01-22T17:03:46.709Z,34.93
2018-01-22T17:06:14.492Z,44.53
2018-01-22T17:08:42.167Z,44.73
2018-01-22T17:11:09.740Z,47.13
2018-01-22T17:13:37.455Z,61.83
2018-01-22T17:16:05.022Z,53.20
2018-01-22T17:18:32.604Z,52.13
2018-01-22T17:21:00.296Z,47.75
2018-01-22T17:23:27.939Z,40.07
2018-01-22T17:25:55.582Z,40.27
2018-01-22T17:28:23.238Z,48.30
2018-01-22T17:30:50.823Z,48.90
2018-01-22T17:33:18.394Z,59.60
2018-01-22T17:35:46.381Z,66.83
2018-01-22T17:38:16.589Z,55.33
2018-01-22T17:40:44.159Z,62.73
2018-01-22T17:43:11.769Z,86.60
2018-01-22T17:45:39.344Z,66.77
2018-01-22T17:48:06.908Z,38.20
2018-01-22T17:50:34.518Z,50.20
2018-01-22T17:53:02.105Z,54.10
2018-01-22T17:55:29.689Z,59.30
2018-01-22T17:57:57.322Z,49.20
2018-01-22T18:00:24.900Z,52.20
2018-01-22T18:02:52.457Z,42.20
2018-01-22T18:05:20.070Z,68.23
2018-01-22T18:07:47.644Z,51.13
2018-01-22T18:10:15.218Z,46.37
2018-01-22T18:12:42.826Z,35.20
2018-01-22T18:15:10.395Z,34.70
2018-01-22T18:17:37.965Z,41.60
2018-01-22T18:20:05.581Z,44.13
2018-01-22T18:22:33.156Z,33.37
2018-01-22T18:25:00.722Z,34.70
2018-01-22T18:27:28.373Z,31.20
2018-01-22T18:29:55.948Z,35.17
2018-01-22T18:32:23.615Z,25.40
2018-01-22T18:34:51.259Z,37.20
2018-01-22T18:37:18.855Z,32.70
2018-01-22T18:39:46.430Z,30.80
2018-01-22T18:42:14.163Z,35.40
2018-01-22T18:44:41.735Z,30.27
2018-01-22T18:47:09.305Z,31.43
2018-01-22T18:49:36.912Z,35.37
2018-01-22T18:52:04.477Z,32.13
2018-01-22T18:54:32.089Z,34.93
2018-01-22T18:56:59.707Z,35.83
2018-01-22T18:59:27.285Z,36.73
2018-01-22T19:01:54.863Z,36.67
2018-01-22T19:04:22.476Z,30.10
2018-01-22T19:06:50.040Z,22.20
2018-01-22T19:09:17.607Z,22.67
2018-01-22T19:11:45.217Z,29.97
2018-01-22T19:14:13.385Z,28.20
2018-01-22T19:16:41.071Z,29.27
2018-01-22T19:19:08.779Z,37.97
2018-01-22T19:21:36.429Z,32.73
2018-01-22T19:24:04.058Z,30.77
2018-01-22T19:26:31.637Z,27.37
2018-01-22T19:28:59.241Z,29.60
2018-01-22T19:31:26.831Z,33.87
2018-01-22T19:33:54.434Z,49.50
2018-01-22T19:36:22.054Z,52.93
2018-01-22T19:38:49.617Z,43.77
2018-01-22T19:41:17.183Z,49.00
2018-01-22T19:43:44.831Z,32.83
2018-01-22T19:46:12.412Z,39.80
2018-01-22T19:48:39.990Z,39.23
2018-01-22T19:51:07.600Z,35.70
2018-01-22T19:53:35.164Z,36.77
2018-01-22T19:56:02.717Z,41.57
2018-01-22T19:58:30.312Z,43.73
2018-01-22T20:00:57.863Z,36.30
2018-01-22T20:03:25.445Z,38.47
2018-01-22T20:05:53.061Z,31.77
2018-01-22T20:08:20.807Z,27.40
2018-01-22T20:10:48.501Z,43.90
2018-01-22T20:13:16.226Z,39.70
2018-01-22T20:15:43.795Z,36.03
2018-01-22T20:18:11.531Z,33.30
2018-01-22T20:20:39.132Z,38.70
2018-01-22T20:23:06.713Z,30.80
2018-01-22T20:25:34.280Z,34.37
2018-01-22T20:28:01.861Z,31.87
2018-01-22T20:30:29.417Z,43.30
2018-01-22T20:32:57.007Z,39.63
2018-01-22T20:35:24.715Z,37.47
2018-01-22T20:37:52.398Z,37.10
2018-01-22T20:40:19.942Z,42.73
2018-01-22T20:42:47.548Z,35.93
2018-01-22T20:45:15.150Z,37.23
2018-01-22T20:47:42.736Z,42.67
2018-01-22T20:50:10.328Z,36.27
2018-01-22T20:52:37.904Z,39.27
2018-01-22T20:55:05.491Z,34.23
2018-01-22T20:57:33.091Z,36.73
2018-01-22T21:00:00.681Z,37.13
2018-01-22T21:02:28.237Z,40.87
2018-01-22T21:04:55.818Z,40.40
2018-01-22T21:07:23.402Z,46.60
2018-01-22T21:09:50.957Z,36.93
2018-01-22T21:12:18.584Z,37.30
2018-01-22T21:14:46.146Z,36.03
2018-01-22T21:17:13.737Z,40.00
2018-01-22T21:19:41.350Z,37.67
2018-01-22T21:22:08.906Z,41.97
2018-01-22T21:24:36.475Z,36.10
2018-01-22T21:27:04.060Z,35.33
2018-01-22T21:29:31.641Z,36.23
2018-01-22T21:31:59.202Z,36.57
2018-01-22T21:34:26.969Z,34.57
2018-01-22T21:36:54.528Z,35.50
2018-01-22T21:39:22.072Z,34.73
2018-01-22T21:41:49.692Z,31.70
2018-01-22T21:44:17.308Z,33.90
2018-01-22T21:46:44.909Z,31.17
2018-01-22T21:49:12.530Z,34.37
2018-01-22T21:51:40.100Z,43.63
2018-01-22T21:54:07.658Z,43.87
2018-01-22T21:56:35.280Z,38.30
2018-01-22T21:59:02.850Z,34.90
2018-01-22T22:01:30.492Z,34.63
2018-01-22T22:03:58.106Z,34.17
2018-01-22T22:06:25.693Z,28.33
2018-01-22T22:08:53.274Z,37.47
2018-01-22T22:11:20.870Z,40.00
2018-01-22T22:13:48.445Z,33.67
2018-01-22T22:16:16.021Z,32.00
2018-01-22T22:18:43.642Z,28.83
2018-01-22T22:21:11.220Z,25.00
2018-01-22T22:23:38.803Z,24.70
2018-01-22T22:26:06.765Z,28.03
2018-01-22T22:28:34.377Z,24.40
2018-01-22T22:31:01.927Z,26.50
2018-01-22T22:33:29.517Z,31.17
2018-01-22T22:35:57.105Z,32.57
2018-01-22T22:38:24.680Z,27.43
2018-01-22T22:40:52.277Z,26.90
2018-01-22T22:43:19.896Z,37.73
2018-01-22T22:45:47.771Z,30.70
2018-01-22T22:48:15.398Z,26.53
2018-01-22T22:50:42.994Z,32.20
2018-01-22T22:53:10.559Z,28.57
2018-01-22T22:55:38.389Z,40.90
2018-01-22T22:58:06.140Z,38.33
2018-01-22T23:00:33.786Z,36.90
2018-01-22T23:03:01.398Z,37.23
2018-01-22T23:05:28.998Z,35.73
2018-01-22T23:07:56.560Z,31.40
2018-01-22T23:10:24.170Z,27.33
2018-01-22T23:12:51.749Z,23.30
2018-01-22T23:15:19.336Z,26.67
2018-01-22T23:17:46.923Z,26.53
2018-01-22T23:20:14.484Z,24.63
2018-01-22T23:22:42.055Z,25.70
2018-01-22T23:25:09.679Z,26.13
2018-01-22T23:27:37.295Z,29.90
2018-01-22T23:30:04.863Z,27.10
2018-01-22T23:32:32.494Z,23.17
2018-01-22T23:35:00.072Z,24.63
2018-01-22T23:37:27.673Z,28.63
2018-01-22T23:39:55.263Z,24.70
2018-01-22T23:42:22.823Z,25.93
2018-01-22T23:44:50.421Z,24.00
2018-01-22T23:47:18.059Z,32.40
2018-01-22T23:49:45.601Z,30.67
2018-01-22T23:52:13.166Z,31.30
2018-01-22T23:54:40.777Z,31.17
2018-01-22T23:57:08.355Z,29.00
2018-01-22T23:59:35.904Z,26.67
